Time;durP1;ratioP1;P1;durP2;ratioP2;P2;SDS_P1;SDS_P2;PMS_P1;PMS_P2;Temp;Humidity;BMP_temperature;BMP_pressure;BME280_temperature;BME280_humidity;BME280_pressure;Samples;Min_cycle;Max_cycle;Signal;HPM_P1;HPM_P2
2022/06/15 00:09:26;;;;;;;;;;;;;;;;;;;;;
2022/06/15 00:16:25;;;;;;;;;;;;;;;;;;;;;
2022/06/15 00:23:03;;;;;;;;;;;15.60;85.60;;;;;;4806963;29;19940;-86
2022/06/15 00:26:44;;;;;;;;;;;;;;;;;;;;;
2022/06/15 00:30:24;;;;;;;;;;;15.40;85.70;;;;;;4766153;30;19933;-86
2022/06/15 00:34:06;;;;;;;;;;;;;;;;;;;;;
2022/06/15 00:37:18;;;;;;;;;;;;;;;;;;;;;
2022/06/15 00:41:20;;;;;;;;;;;15.50;89.10;;;;;;4661424;30;19940;-86
2022/06/15 00:44:45;;;;;;;;;;;15.20;86.80;;;;;;4633634;30;19920;-85
2022/06/15 00:47:55;;;;;;;;;;;;;;;;;;;;;
2022/06/15 00:51:21;;;;;;;;;;;15.00;88.40;;;;;;4693913;30;19939;-87
2022/06/15 00:54:47;;;;;;;;;;;14.90;87.90;;;;;;4672000;30;19935;-86
2022/06/15 01:02:03;;;;;;;;;;;14.80;90.00;;;;;;4642670;30;19975;-88
2022/06/15 01:16:07;;;;;;;;;;;;;;;;;;;;;
2022/06/15 01:19:19;;;;;;;;;;;;;;;;;;;;;
2022/06/15 01:23:17;;;;;;;;;;;;;;;;;;;;;
2022/06/15 01:27:32;;;;;;;;;;;12.90;90.50;;;;;;4642625;30;19938;-86
2022/06/15 01:37:23;;;;;;;;;;;13.90;91.00;;;;;;4624376;30;19930;-86
2022/06/15 01:40:26;;;;;;;;;;;14.70;91.70;;;;;;4650179;30;19905;-87
2022/06/15 01:47:06;;;;;;;;;;;13.60;92.20;;;;;;4727138;30;19931;-86
2022/06/15 01:50:29;;;;;;;;;;;;;;;;;;;;;
2022/06/15 01:54:11;;;;;;;;;;;;;;;;;;;;;
2022/06/15 01:57:10;;;;;;;;;;;13.50;91.70;;;;;;4888564;29;19939;-86
2022/06/15 02:04:47;;;;;;;;;;;;;;;;;;;;;
2022/06/15 02:08:17;;;;;;;;;;;13.50;92.10;;;;;;4863152;29;20503;-86
2022/06/15 02:11:56;;;;;;;;;;;13.80;91.90;;;;;;4857404;29;19935;-85
2022/06/15 02:14:43;;;;;;;;;;;13.50;91.70;;;;;;4837802;29;19936;-84
2022/06/15 02:18:00;;;;;;;;;;;13.40;92.00;;;;;;4827991;29;19933;-86
2022/06/15 02:24:17;;;;;;;;;;;12.40;92.10;;;;;;4868631;29;19932;-86
2022/06/15 02:27:22;;;;;;;;;;;13.40;92.40;;;;;;4859799;29;19944;-86
2022/06/15 02:30:41;;;;;;;;;;;13.40;93.50;;;;;;4836883;29;19928;-86
2022/06/15 02:34:14;;;;;;;;;;;;;;;;;;;;;
2022/06/15 02:38:09;;;;;;;;;;;13.00;93.00;;;;;;4825841;29;19928;-85
2022/06/15 02:45:50;;;;;;;;;;;13.20;92.80;;;;;;4753174;30;19932;-85
2022/06/15 02:56:51;;;;;;;;;;;;;;;;;;;;;
2022/06/15 03:00:37;;;;;;;;;;;12.70;94.10;;;;;;4781707;30;19938;-85
2022/06/15 03:07:22;;;;;;;;;;;;;;;;;;;;;
2022/06/15 03:10:25;;;;;;;;;;;12.70;93.50;;;;;;4734323;30;19953;-85
2022/06/15 03:13:34;;;;;;;;;;;13.40;94.40;;;;;;4723205;30;19935;-85
2022/06/15 03:16:49;;;;;;;;;;;12.60;94.90;;;;;;4756669;30;19930;-84
2022/06/15 03:20:11;;;;;;;;;;;12.60;94.10;;;;;;4759251;30;19930;-86
2022/06/15 03:23:29;;;;;;;;;;;11.80;94.70;;;;;;4783458;30;19930;-85
2022/06/15 03:27:02;;;;;;;;;;;;;;;;;;;;;
2022/06/15 03:30:30;;;;;;;;;;;12.60;95.20;;;;;;4754603;30;19930;-85
2022/06/15 03:34:15;;;;;;;;;;;13.00;94.50;;;;;;4805982;29;19936;-85
2022/06/15 03:37:50;;;;;;;;;;;;;;;;;;;;;
2022/06/15 03:41:40;;;;;;;;;;;;;;;;;;;;;
2022/06/15 03:45:02;;;;;;;;;;;13.50;95.00;;;;;;4850956;29;19913;-85
2022/06/15 03:52:33;;;;;;;;;;;12.30;95.20;;;;;;4830243;29;19929;-85
2022/06/15 04:12:38;;;;;;;;;;;12.30;95.10;;;;;;4747291;30;20006;-85
2022/06/15 04:16:35;;;;;;;;;;;;;;;;;;;;;
2022/06/15 04:35:53;;;;;;;;;;;12.60;96.70;;;;;;4720608;30;19925;-85
2022/06/15 04:43:45;;;;;;;;;;;;;;;;;;;;;
2022/06/15 04:55:02;;;;;;;;;;;13.00;96.70;;;;;;4716746;30;19911;-85
2022/06/15 04:59:17;;;;;;;;;;;13.10;96.00;;;;;;4680905;30;19932;-85
2022/06/15 05:15:08;;;;;;;;;;;;;;;;;;;;;
2022/06/15 05:37:42;;;;;;;;;;;;;;;;;;;;;
2022/06/15 05:40:45;;;;;;;;;;;;;;;;;;;;;
2022/06/15 05:48:34;;;;;;;;;;;;;;;;;;;;;
2022/06/15 05:51:52;;;;;;;;;;;;;;;;;;;;;
2022/06/15 06:00:25;;;;;;;;;;;;;;;;;;;;;
2022/06/15 06:13:25;;;;;;;;;;;;;;;;;;;;;
2022/06/15 06:16:04;;;;;;;;;;;17.40;97.90;;;;;;4634760;30;19931;-83
2022/06/15 06:18:36;;;;;;;;;;;15.30;97.40;;;;;;4689750;30;19923;-84
2022/06/15 06:21:09;;;;;;;;;;;15.50;96.80;;;;;;4690737;30;20516;-83
2022/06/15 06:23:39;;;;;;;;;;;15.60;96.70;;;;;;4693195;29;20255;-82
2022/06/15 06:26:15;;;;;;;;;;;15.60;97.50;;;;;;4797768;29;19930;-86
2022/06/15 06:28:56;;;;;;;;;;;14.80;96.20;;;;;;4798293;29;19937;-84
2022/06/15 06:31:37;;;;;;;;;;;17.50;97.40;;;;;;4833297;29;20088;-84
2022/06/15 06:34:12;;;;;;;;;;;15.00;97.20;;;;;;4836229;29;20028;-84
2022/06/15 06:36:45;;;;;;;;;;;15.90;96.40;;;;;;4837328;29;19940;-82
2022/06/15 06:39:16;;;;;;;;;;;16.10;96.60;;;;;;4821788;29;19929;-82
2022/06/15 06:41:45;;;;;;;;;;;16.10;96.50;;;;;;4891033;29;20433;-84
2022/06/15 06:47:41;;;;;;;;;;;16.30;96.30;;;;;;4896275;29;20293;-87
2022/06/15 06:50:13;;;;;;;;;;;16.70;96.40;;;;;;4861704;29;19935;-83
2022/06/15 06:52:48;;;;;;;;;;;16.50;95.90;;;;;;4888514;29;19934;-82
2022/06/15 06:55:16;;;;;;;;;;;16.70;96.10;;;;;;4865091;29;19938;-81
2022/06/15 06:57:45;;;;;;;;;;;16.70;96.00;;;;;;4880502;29;20319;-82
2022/06/15 07:00:14;;;;;;;;;;;16.80;95.70;;;;;;4873158;29;19932;-81
2022/06/15 07:02:42;;;;;;;;;;;16.90;95.60;;;;;;4890324;29;19934;-83
2022/06/15 07:05:14;;;;;;;;;;;17.00;95.50;;;;;;4883627;29;20162;-82
2022/06/15 07:07:42;;;;;;;;;;;17.20;95.40;;;;;;4878489;29;19932;-82
2022/06/15 07:10:10;;;;;;;;;;;17.30;95.40;;;;;;4891699;29;19934;-82
2022/06/15 07:12:42;;;;;;;;;;;17.40;95.50;;;;;;4897115;29;19932;-83
2022/06/15 07:15:11;;;;;;;;;;;17.40;95.40;;;;;;4873883;29;19928;-82
2022/06/15 07:17:40;;;;;;;;;;;17.60;95.20;;;;;;4878075;29;19932;-82
2022/06/15 07:20:11;;;;;;;;;;;17.60;94.90;;;;;;4899586;29;20163;-83
2022/06/15 07:22:41;;;;;;;;;;;17.90;94.90;;;;;;4890026;29;19944;-82
2022/06/15 07:25:12;;;;;;;;;;;17.80;95.40;;;;;;4872347;29;19931;-82
2022/06/15 07:27:41;;;;;;;;;;;17.90;94.80;;;;;;4897059;29;19927;-82
2022/06/15 07:30:12;;;;;;;;;;;18.10;94.50;;;;;;4866792;29;19932;-81
2022/06/15 07:32:43;;;;;;;;;;;18.50;94.40;;;;;;4895779;29;19927;-84
2022/06/15 07:35:18;;;;;;;;;;;18.20;94.20;;;;;;4894124;29;19931;-82
2022/06/15 07:37:47;;;;;;;;;;;18.30;93.80;;;;;;4883618;29;19927;-82
2022/06/15 07:40:38;;;;;;;;;;;18.40;93.70;;;;;;4869573;29;19928;-82
2022/06/15 07:43:12;;;;;;;;;;;18.60;94.10;;;;;;4912251;29;19927;-83
2022/06/15 07:45:40;;;;;;;;;;;18.70;93.10;;;;;;4883186;29;19927;-83
2022/06/15 07:50:56;;;;;;;;;;;18.80;93.10;;;;;;4893232;29;19931;-84
2022/06/15 07:53:25;;;;;;;;;;;18.90;92.70;;;;;;4899535;29;19934;-82
2022/06/15 07:55:54;;;;;;;;;;;19.00;92.30;;;;;;4890109;29;19943;-83
2022/06/15 07:58:25;;;;;;;;;;;19.10;92.40;;;;;;4877602;29;19934;-82
2022/06/15 08:00:55;;;;;;;;;;;19.20;92.40;;;;;;4896984;29;19928;-82
2022/06/15 08:03:23;;;;;;;;;;;19.30;91.90;;;;;;4888624;29;19928;-82
2022/06/15 08:05:51;;;;;;;;;;;19.40;91.50;;;;;;4873427;29;19924;-82
2022/06/15 08:08:24;;;;;;;;;;;19.40;92.00;;;;;;4887109;29;19951;-82
2022/06/15 08:10:53;;;;;;;;;;;19.40;91.60;;;;;;4887973;29;19928;-82
2022/06/15 08:13:21;;;;;;;;;;;19.60;91.20;;;;;;4875900;29;19936;-82
2022/06/15 08:15:50;;;;;;;;;;;19.70;91.10;;;;;;4873061;29;19932;-83
2022/06/15 08:18:22;;;;;;;;;;;19.90;91.30;;;;;;4886054;29;19936;-83
2022/06/15 08:20:55;;;;;;;;;;;19.90;91.20;;;;;;4890268;29;19934;-84
2022/06/15 08:23:28;;;;;;;;;;;20.20;91.70;;;;;;4876915;29;19934;-83
2022/06/15 08:25:57;;;;;;;;;;;20.10;90.50;;;;;;4862244;29;19932;-82
2022/06/15 08:28:26;;;;;;;;;;;20.30;90.60;;;;;;4888773;29;19928;-82
2022/06/15 08:30:56;;;;;;;;;;;20.40;90.40;;;;;;4883962;29;19932;-82
2022/06/15 08:33:24;;;;;;;;;;;20.50;90.00;;;;;;4896080;29;19931;-82
2022/06/15 08:35:53;;;;;;;;;;;20.60;90.40;;;;;;4900202;29;19939;-83
2022/06/15 08:38:25;;;;;;;;;;;20.70;89.60;;;;;;4862739;29;19946;-83
2022/06/15 08:40:55;;;;;;;;;;;20.90;90.00;;;;;;4886327;29;19935;-82
2022/06/15 08:43:41;;;;;;;;;;;20.90;89.10;;;;;;4896405;29;19934;-82
2022/06/15 08:46:12;;;;;;;;;;;21.10;88.60;;;;;;4866391;29;19935;-81
2022/06/15 08:48:51;;;;;;;;;;;21.60;89.80;;;;;;4888323;29;20313;-82
2022/06/15 08:51:26;;;;;;;;;;;21.30;87.90;;;;;;4886650;29;20376;-82
2022/06/15 08:54:12;;;;;;;;;;;21.40;87.90;;;;;;4889033;29;20428;-83
2022/06/15 08:56:43;;;;;;;;;;;21.50;88.40;;;;;;4880795;29;19943;-83
2022/06/15 08:59:46;;;;;;;;;;;21.90;87.60;;;;;;4872684;29;19938;-81
2022/06/15 09:02:20;;;;;;;;;;;21.70;86.50;;;;;;4821114;29;19936;-83
2022/06/15 09:04:54;;;;;;;;;;;21.90;84.90;;;;;;4862172;29;19942;-84
2022/06/15 09:07:24;;;;;;;;;;;22.00;84.20;;;;;;4872073;29;19935;-83
2022/06/15 09:10:01;;;;;;;;;;;21.70;83.50;;;;;;4889186;29;19928;-82
2022/06/15 09:15:42;;;;;;;;;;;22.20;79.10;;;;;;4891853;29;19936;-82
2022/06/15 09:18:15;;;;;;;;;;;21.80;79.00;;;;;;4875073;29;19928;-82
2022/06/15 09:20:47;;;;;;;;;;;22.50;81.30;;;;;;4885924;29;19939;-82
2022/06/15 09:23:21;;;;;;;;;;;22.60;78.90;;;;;;4887990;29;19938;-82
2022/06/15 09:26:01;;;;;;;;;;;22.70;79.50;;;;;;4889881;29;19936;-82
2022/06/15 09:28:39;;;;;;;;;;;23.60;77.70;;;;;;4889979;29;19939;-81
2022/06/15 09:31:10;;;;;;;;;;;22.90;78.30;;;;;;4873503;29;19931;-81
2022/06/15 09:33:45;;;;;;;;;;;23.00;77.90;;;;;;4892869;29;19928;-82
2022/06/15 09:36:26;;;;;;;;;;;23.20;76.60;;;;;;4892179;29;19931;-81
2022/06/15 09:38:54;;;;;;;;;;;23.20;76.00;;;;;;4873112;29;19932;-81
2022/06/15 09:41:37;;;;;;;;;;;23.40;76.70;;;;;;4874042;29;19927;-82
2022/06/15 09:44:20;;;;;;;;;;;23.50;74.00;;;;;;4884747;29;19942;-81
2022/06/15 09:47:31;;;;;;;;;;;23.60;74.40;;;;;;4891877;29;19935;-81
2022/06/15 09:50:11;;;;;;;;;;;22.20;73.40;;;;;;4874676;29;19936;-81
2022/06/15 09:52:58;;;;;;;;;;;23.90;75.20;;;;;;4874647;29;20234;-79
2022/06/15 09:55:37;;;;;;;;;;;23.90;73.60;;;;;;4891466;29;19935;-81
2022/06/15 09:58:27;;;;;;;;;;;23.90;74.00;;;;;;4891652;29;19932;-82
2022/06/15 10:00:55;;;;;;;;;;;24.00;72.30;;;;;;4874245;29;19932;-81
2022/06/15 10:03:25;;;;;;;;;;;24.00;71.80;;;;;;4870853;29;19932;-81
2022/06/15 10:05:57;;;;;;;;;;;24.00;70.50;;;;;;4875671;29;19928;-81
2022/06/15 10:08:27;;;;;;;;;;;24.00;72.20;;;;;;4886927;29;19938;-82
2022/06/15 10:10:57;;;;;;;;;;;24.10;72.90;;;;;;4875553;29;19928;-81
2022/06/15 10:13:30;;;;;;;;;;;24.30;72.50;;;;;;4872681;29;19929;-83
2022/06/15 10:16:00;;;;;;;;;;;24.40;72.30;;;;;;4880553;29;20052;-81
2022/06/15 10:18:34;;;;;;;;;;;24.60;72.50;;;;;;4895123;29;19932;-82
2022/06/15 10:21:09;;;;;;;;;;;24.80;71.40;;;;;;4893911;29;19931;-82
2022/06/15 10:23:42;;;;;;;;;;;24.80;70.90;;;;;;4900381;29;19932;-82
2022/06/15 10:26:21;;;;;;;;;;;24.90;70.40;;;;;;4883797;29;19931;-82
2022/06/15 10:28:49;;;;;;;;;;;25.00;70.20;;;;;;4899102;29;19928;-82
2022/06/15 10:31:23;;;;;;;;;;;25.10;70.20;;;;;;4874783;29;19935;-82
2022/06/15 10:33:55;;;;;;;;;;;25.30;70.40;;;;;;4865908;29;19928;-82
2022/06/15 10:36:29;;;;;;;;;;;25.40;70.50;;;;;;4896099;29;19932;-81
2022/06/15 10:39:04;;;;;;;;;;;25.40;68.90;;;;;;4888913;29;19928;-82
2022/06/15 10:41:57;;;;;;;;;;;25.30;68.50;;;;;;4873448;29;19928;-81
2022/06/15 10:44:29;;;;;;;;;;;25.40;66.30;;;;;;4888491;29;19928;-82
2022/06/15 10:46:58;;;;;;;;;;;25.20;67.90;;;;;;4891007;29;19939;-82
2022/06/15 10:49:33;;;;;;;;;;;25.30;68.20;;;;;;4889388;29;19934;-83
2022/06/15 10:52:03;;;;;;;;;;;25.50;68.10;;;;;;4892719;29;19934;-82
2022/06/15 10:54:31;;;;;;;;;;;25.50;66.80;;;;;;4877751;29;19935;-82
2022/06/15 11:03:19;;;;;;;;;;;26.00;66.10;;;;;;4890638;29;19932;-82
2022/06/15 11:05:49;;;;;;;;;;;26.20;65.90;;;;;;4898376;29;19937;-82
2022/06/15 11:08:23;;;;;;;;;;;25.80;66.30;;;;;;4884752;29;19931;-83
2022/06/15 11:11:08;;;;;;;;;;;26.40;65.40;;;;;;4874675;29;19942;-82
2022/06/15 11:13:42;;;;;;;;;;;26.60;66.10;;;;;;4889936;29;19932;-83
2022/06/15 11:19:08;;;;;;;;;;;26.80;65.40;;;;;;4871136;29;19935;-83
2022/06/15 11:21:41;;;;;;;;;;;26.90;62.20;;;;;;4890847;29;19932;-83
2022/06/15 11:24:21;;;;;;;;;;;26.80;64.50;;;;;;4887132;29;19943;-83
2022/06/15 11:26:54;;;;;;;;;;;26.90;64.40;;;;;;4887803;29;19942;-83
2022/06/15 11:29:41;;;;;;;;;;;27.10;64.10;;;;;;4874841;29;19942;-83
2022/06/15 11:32:28;;;;;;;;;;;27.20;64.20;;;;;;4890527;29;19938;-83
2022/06/15 11:35:08;;;;;;;;;;;27.30;61.60;;;;;;4871415;29;19939;-82
2022/06/15 11:37:57;;;;;;;;;;;27.40;63.40;;;;;;4858072;29;19955;-82
2022/06/15 11:40:28;;;;;;;;;;;27.50;62.30;;;;;;4890374;29;19927;-82
2022/06/15 11:42:57;;;;;;;;;;;27.50;61.80;;;;;;4889746;29;19942;-82
2022/06/15 11:45:45;;;;;;;;;;;27.50;61.10;;;;;;4886735;29;19928;-82
2022/06/15 11:48:18;;;;;;;;;;;27.50;62.20;;;;;;4873397;29;19939;-82
2022/06/15 11:50:55;;;;;;;;;;;28.10;62.10;;;;;;4887020;29;19931;-83
2022/06/15 11:53:35;;;;;;;;;;;27.80;61.60;;;;;;4885280;29;19943;-81
2022/06/15 11:56:06;;;;;;;;;;;28.00;61.50;;;;;;4867953;29;19936;-82
2022/06/15 11:58:55;;;;;;;;;;;28.20;61.60;;;;;;4871145;29;19931;-82
2022/06/15 12:01:58;;;;;;;;;;;28.20;60.00;;;;;;4875718;29;19934;-84
2022/06/15 12:04:26;;;;;;;;;;;28.50;60.00;;;;;;4888273;29;19927;-82
2022/06/15 12:06:57;;;;;;;;;;;28.40;61.00;;;;;;4875306;29;19936;-80
2022/06/15 12:09:44;;;;;;;;;;;28.40;58.50;;;;;;4872463;29;19954;-82
2022/06/15 12:12:45;;;;;;;;;;;28.50;58.80;;;;;;4889347;29;19933;-83
2022/06/15 12:15:34;;;;;;;;;;;28.60;59.40;;;;;;4860430;29;19943;-82
2022/06/15 12:18:15;;;;;;;;;;;28.90;58.80;;;;;;4875889;29;19939;-83
2022/06/15 12:20:57;;;;;;;;;;;28.80;59.30;;;;;;4871877;29;19951;-84
2022/06/15 12:23:41;;;;;;;;;;;28.60;59.40;;;;;;4887892;29;20287;-83
2022/06/15 12:26:35;;;;;;;;;;;28.60;59.00;;;;;;4856537;29;19928;-82
2022/06/15 12:29:06;;;;;;;;;;;29.30;57.80;;;;;;4846697;29;20393;-82
2022/06/15 12:31:35;;;;;;;;;;;28.90;58.30;;;;;;4869448;29;19936;-82
2022/06/15 12:34:02;;;;;;;;;;;29.10;58.30;;;;;;4870248;29;19928;-82
2022/06/15 12:36:34;;;;;;;;;;;29.10;59.00;;;;;;4851711;29;19943;-82
2022/06/15 12:39:20;;;;;;;;;;;29.30;57.20;;;;;;4854482;29;19939;-82
2022/06/15 12:42:10;;;;;;;;;;;28.20;56.80;;;;;;4839490;29;19936;-83
2022/06/15 12:44:53;;;;;;;;;;;30.70;58.70;;;;;;4867157;29;19928;-82
2022/06/15 12:47:22;;;;;;;;;;;29.60;57.60;;;;;;4872547;29;19928;-82
2022/06/15 12:50:06;;;;;;;;;;;29.60;57.80;;;;;;4838739;29;19935;-82
2022/06/15 12:52:56;;;;;;;;;;;29.70;57.40;;;;;;4872099;29;19935;-83
2022/06/15 12:55:33;;;;;;;;;;;29.80;57.50;;;;;;4851515;29;20570;-83
2022/06/15 12:58:16;;;;;;;;;;;28.70;55.80;;;;;;4838220;29;19939;-82
2022/06/15 13:00:57;;;;;;;;;;;29.80;56.30;;;;;;4867722;29;19963;-83
2022/06/15 13:03:25;;;;;;;;;;;29.70;56.70;;;;;;4853816;29;19929;-81
2022/06/15 13:06:13;;;;;;;;;;;29.80;56.10;;;;;;4853755;29;20291;-81
2022/06/15 13:08:44;;;;;;;;;;;29.90;56.20;;;;;;4870560;29;19936;-82
2022/06/15 13:11:15;;;;;;;;;;;30.20;55.80;;;;;;4868239;29;19936;-83
2022/06/15 13:13:46;;;;;;;;;;;30.40;55.50;;;;;;4869465;29;19939;-82
2022/06/15 13:16:33;;;;;;;;;;;30.60;56.40;;;;;;4870879;29;19928;-81
2022/06/15 13:19:03;;;;;;;;;;;30.80;56.10;;;;;;4869941;29;20386;-81
2022/06/15 13:21:51;;;;;;;;;;;31.00;56.00;;;;;;4857578;29;19927;-82
2022/06/15 13:24:20;;;;;;;;;;;31.20;55.90;;;;;;4873151;29;19942;-82
2022/06/15 13:26:52;;;;;;;;;;;31.30;56.60;;;;;;4854543;29;19927;-82
2022/06/15 13:29:22;;;;;;;;;;;31.30;55.90;;;;;;4892122;29;20198;-82
2022/06/15 13:32:01;;;;;;;;;;;31.40;56.00;;;;;;4889471;29;19932;-83
2022/06/15 13:34:33;;;;;;;;;;;31.30;56.40;;;;;;4890902;29;19931;-83
2022/06/15 13:37:10;;;;;;;;;;;31.30;56.20;;;;;;4892374;29;19932;-82
2022/06/15 13:39:49;;;;;;;;;;;31.40;57.30;;;;;;4891370;29;19932;-85
2022/06/15 13:42:34;;;;;;;;;;;31.60;58.00;;;;;;4867794;29;19928;-83
2022/06/15 13:45:09;;;;;;;;;;;31.70;58.60;;;;;;4871789;29;19928;-83
2022/06/15 13:47:57;;;;;;;;;;;31.90;58.60;;;;;;4892998;29;19927;-83
2022/06/15 13:50:41;;;;;;;;;;;31.80;58.50;;;;;;4895645;29;19936;-83
2022/06/15 13:53:23;;;;;;;;;;;31.90;58.30;;;;;;4858438;29;19950;-83
2022/06/15 13:55:54;;;;;;;;;;;31.90;58.90;;;;;;4869093;29;19935;-83
2022/06/15 13:58:23;;;;;;;;;;;31.80;59.10;;;;;;4874756;29;19929;-84
2022/06/15 14:00:54;;;;;;;;;;;31.80;59.70;;;;;;4873614;29;19947;-82
2022/06/15 14:03:25;;;;;;;;;;;31.80;59.90;;;;;;4891231;29;19935;-83
2022/06/15 14:05:59;;;;;;;;;;;32.00;60.00;;;;;;4898739;29;19936;-80
2022/06/15 14:08:49;;;;;;;;;;;32.10;58.60;;;;;;4870098;29;19932;-79
2022/06/15 14:11:35;;;;;;;;;;;32.20;58.60;;;;;;4874926;29;19927;-79
2022/06/15 14:14:18;;;;;;;;;;;32.40;59.20;;;;;;4859120;29;19932;-80
2022/06/15 14:16:49;;;;;;;;;;;32.50;58.90;;;;;;4880849;29;19928;-81
2022/06/15 14:19:19;;;;;;;;;;;32.70;58.50;;;;;;4871711;29;19932;-83
2022/06/15 14:22:06;;;;;;;;;;;32.70;58.20;;;;;;4868459;29;19942;-79
2022/06/15 14:24:34;;;;;;;;;;;32.90;58.40;;;;;;4867294;29;19934;-78
2022/06/15 14:27:06;;;;;;;;;;;33.20;58.50;;;;;;4888862;29;19928;-82
2022/06/15 14:29:35;;;;;;;;;;;33.50;57.60;;;;;;4891195;29;19928;-79
2022/06/15 14:32:04;;;;;;;;;;;33.60;57.10;;;;;;4875412;29;19927;-80
2022/06/15 14:34:35;;;;;;;;;;;33.70;57.30;;;;;;4892086;29;19939;-79
2022/06/15 14:37:17;;;;;;;;;;;34.00;56.90;;;;;;4891444;29;21396;-79
2022/06/15 14:39:53;;;;;;;;;;;34.00;56.50;;;;;;4875733;29;19932;-79
2022/06/15 14:42:28;;;;;;;;;;;34.10;56.60;;;;;;4886014;29;19932;-79
2022/06/15 14:45:13;;;;;;;;;;;34.30;56.70;;;;;;4869802;29;20006;-78
2022/06/15 14:47:49;;;;;;;;;;;34.30;56.30;;;;;;4887096;29;19935;-78
2022/06/15 14:50:18;;;;;;;;;;;34.50;55.80;;;;;;4873984;29;19938;-78
2022/06/15 14:52:47;;;;;;;;;;;34.50;56.00;;;;;;4888896;29;19932;-78
2022/06/15 14:55:19;;;;;;;;;;;34.60;55.70;;;;;;4883642;29;19929;-79
2022/06/15 14:57:47;;;;;;;;;;;34.90;55.80;;;;;;4886028;29;19938;-81
2022/06/15 15:00:23;;;;;;;;;;;35.10;56.00;;;;;;4872997;29;19931;-79
2022/06/15 15:02:54;;;;;;;;;;;35.30;54.80;;;;;;4883575;29;19943;-80
2022/06/15 15:05:24;;;;;;;;;;;35.40;55.30;;;;;;4886870;29;19936;-81
2022/06/15 15:08:14;;;;;;;;;;;35.50;55.00;;;;;;4885788;29;19928;-79
2022/06/15 15:10:43;;;;;;;;;;;35.40;54.70;;;;;;4886159;29;19932;-81
2022/06/15 15:13:34;;;;;;;;;;;35.60;55.10;;;;;;4888856;29;19927;-80
2022/06/15 15:16:20;;;;;;;;;;;35.60;54.50;;;;;;4885719;29;19932;-82
2022/06/15 15:18:58;;;;;;;;;;;35.50;54.00;;;;;;4870852;29;19938;-78
2022/06/15 15:21:31;;;;;;;;;;;35.00;54.00;;;;;;4883815;29;19943;-78
2022/06/15 15:24:22;;;;;;;;;;;34.90;54.50;;;;;;4874390;29;19932;-81
2022/06/15 15:26:54;;;;;;;;;;;34.80;54.20;;;;;;4900396;29;19935;-83
2022/06/15 15:35:16;;;;;;;;;;;34.90;53.50;;;;;;4885415;29;19931;-81
2022/06/15 15:37:46;;;;;;;;;;;35.00;54.20;;;;;;4884250;29;19927;-79
2022/06/15 15:40:20;;;;;;;;;;;35.10;54.30;;;;;;4902694;29;19938;-80
2022/06/15 15:42:48;;;;;;;;;;;35.40;53.20;;;;;;4889735;29;19935;-83
2022/06/15 15:45:27;;;;;;;;;;;35.50;53.80;;;;;;4886537;29;19932;-81
2022/06/15 15:47:57;;;;;;;;;;;35.60;53.60;;;;;;4901108;29;19938;-80
2022/06/15 15:50:27;;;;;;;;;;;35.70;53.00;;;;;;4878424;29;19931;-83
2022/06/15 15:52:55;;;;;;;;;;;35.30;52.80;;;;;;4886321;29;19928;-85
2022/06/15 15:55:27;;;;;;;;;;;34.90;52.80;;;;;;4882236;29;19936;-79
2022/06/15 15:57:55;;;;;;;;;;;34.80;53.30;;;;;;4883150;29;19928;-81
2022/06/15 16:00:25;;;;;;;;;;;34.60;53.70;;;;;;4883340;29;19943;-80
2022/06/15 16:03:09;;;;;;;;;;;34.60;53.80;;;;;;4895533;29;19957;-85
2022/06/15 16:05:40;;;;;;;;;;;34.50;53.80;;;;;;4889597;29;19942;-79
2022/06/15 16:08:15;;;;;;;;;;;34.80;54.40;;;;;;4881606;29;19931;-83
2022/06/15 16:10:49;;;;;;;;;;;34.90;53.40;;;;;;4869738;29;19928;-81
2022/06/15 16:13:19;;;;;;;;;;;35.00;53.80;;;;;;4902252;29;19932;-80
2022/06/15 16:15:48;;;;;;;;;;;35.00;53.30;;;;;;4872050;29;19931;-78
2022/06/15 16:18:17;;;;;;;;;;;34.70;53.80;;;;;;4898933;29;19935;-80
2022/06/15 16:20:45;;;;;;;;;;;34.20;54.20;;;;;;4887422;29;19928;-79
2022/06/15 16:23:15;;;;;;;;;;;33.70;54.40;;;;;;4896135;29;19923;-82
2022/06/15 16:25:44;;;;;;;;;;;34.00;55.30;;;;;;4895917;29;19932;-81
2022/06/15 16:28:13;;;;;;;;;;;33.30;55.30;;;;;;4875432;29;19943;-79
2022/06/15 16:30:42;;;;;;;;;;;32.90;55.10;;;;;;4877295;29;19928;-81
2022/06/15 16:33:13;;;;;;;;;;;32.70;55.20;;;;;;4880405;29;19935;-80
2022/06/15 16:35:42;;;;;;;;;;;32.50;55.50;;;;;;4896799;29;19928;-78
2022/06/15 16:38:11;;;;;;;;;;;32.30;55.80;;;;;;4898642;29;19938;-80
2022/06/15 16:40:40;;;;;;;;;;;32.60;56.10;;;;;;4887652;29;19942;-80
2022/06/15 16:43:07;;;;;;;;;;;33.00;55.50;;;;;;4900129;29;19936;-81
2022/06/15 16:45:36;;;;;;;;;;;33.30;55.40;;;;;;4880910;29;19942;-78
2022/06/15 16:48:03;;;;;;;;;;;33.60;54.90;;;;;;4889542;29;19934;-81
2022/06/15 16:50:32;;;;;;;;;;;33.90;54.80;;;;;;4898352;29;19934;-80
2022/06/15 16:53:01;;;;;;;;;;;34.20;54.70;;;;;;4901835;29;19931;-80
2022/06/15 16:55:42;;;;;;;;;;;34.20;54.50;;;;;;4875854;29;20269;-83
2022/06/15 16:58:13;;;;;;;;;;;34.20;54.70;;;;;;4874491;29;19935;-81
2022/06/15 17:00:42;;;;;;;;;;;34.60;54.40;;;;;;4902678;29;19935;-81
2022/06/15 17:03:12;;;;;;;;;;;34.60;54.20;;;;;;4901690;29;19966;-79
2022/06/15 17:05:42;;;;;;;;;;;34.70;54.10;;;;;;4885200;29;19936;-80
2022/06/15 17:08:39;;;;;;;;;;;34.80;54.00;;;;;;4899870;29;19928;-79
2022/06/15 17:11:17;;;;;;;;;;;35.00;53.60;;;;;;4877054;29;19928;-78
2022/06/15 17:13:47;;;;;;;;;;;35.10;53.20;;;;;;4860433;29;19942;-79
2022/06/15 17:16:16;;;;;;;;;;;35.30;53.40;;;;;;4874039;29;19947;-79
2022/06/15 17:18:44;;;;;;;;;;;35.40;53.80;;;;;;4898011;29;19935;-82
2022/06/15 17:21:15;;;;;;;;;;;34.80;52.90;;;;;;4884121;29;19934;-85
2022/06/15 17:23:48;;;;;;;;;;;35.60;53.40;;;;;;4876397;29;19931;-80
2022/06/15 17:26:19;;;;;;;;;;;35.60;53.00;;;;;;4555712;23;10001402;-84
2022/06/15 17:28:53;;;;;;;;;;;35.80;52.80;;;;;;4879876;29;19928;-86
2022/06/15 17:31:23;;;;;;;;;;;35.70;52.80;;;;;;4897654;29;19932;-84
2022/06/15 17:33:52;;;;;;;;;;;35.70;52.90;;;;;;4897967;29;20181;-86
2022/06/15 17:36:25;;;;;;;;;;;35.60;53.10;;;;;;4896999;29;19939;-85
2022/06/15 17:38:55;;;;;;;;;;;35.70;53.60;;;;;;4872980;29;19927;-86
2022/06/15 17:41:27;;;;;;;;;;;35.20;53.30;;;;;;4886453;29;19942;-85
2022/06/15 17:44:00;;;;;;;;;;;35.00;53.70;;;;;;4899829;29;19943;-85
2022/06/15 17:46:32;;;;;;;;;;;35.00;53.60;;;;;;4883811;29;19942;-85
2022/06/15 17:49:01;;;;;;;;;;;34.80;53.70;;;;;;4908371;29;19931;-85
2022/06/15 17:51:29;;;;;;;;;;;34.80;53.90;;;;;;4883860;29;19932;-85
2022/06/15 17:53:57;;;;;;;;;;;34.80;53.70;;;;;;4883962;29;19942;-86
2022/06/15 17:56:26;;;;;;;;;;;34.90;53.80;;;;;;4900688;29;19927;-85
2022/06/15 17:58:56;;;;;;;;;;;34.80;53.60;;;;;;4899475;29;19935;-86
2022/06/15 18:01:26;;;;;;;;;;;34.80;53.90;;;;;;4901159;29;19939;-85
2022/06/15 18:03:56;;;;;;;;;;;34.70;53.70;;;;;;4903195;29;19939;-85
2022/06/15 18:06:25;;;;;;;;;;;34.60;53.90;;;;;;4904241;29;19942;-85
2022/06/15 18:08:53;;;;;;;;;;;34.80;53.90;;;;;;4901319;29;19939;-85
2022/06/15 18:11:23;;;;;;;;;;;34.80;53.90;;;;;;4902468;29;20402;-86
2022/06/15 18:13:54;;;;;;;;;;;34.80;53.60;;;;;;4904160;29;19939;-85
2022/06/15 18:16:30;;;;;;;;;;;35.00;53.60;;;;;;4901557;29;19936;-85
2022/06/15 18:19:05;;;;;;;;;;;35.10;53.10;;;;;;4873148;29;19934;-85
2022/06/15 18:21:36;;;;;;;;;;;34.90;53.40;;;;;;4873713;29;19938;-85
2022/06/15 18:24:11;;;;;;;;;;;34.80;54.20;;;;;;4899979;29;19943;-84
2022/06/15 18:26:43;;;;;;;;;;;34.60;53.50;;;;;;4918832;29;19935;-85
2022/06/15 18:29:11;;;;;;;;;;;34.50;53.80;;;;;;4881409;29;19942;-85
2022/06/15 18:31:45;;;;;;;;;;;34.20;53.80;;;;;;4927105;29;20028;-84
2022/06/15 18:34:14;;;;;;;;;;;33.70;54.10;;;;;;4904595;29;19931;-86
2022/06/15 18:36:46;;;;;;;;;;;33.20;54.60;;;;;;4922311;29;19934;-85
2022/06/15 18:39:16;;;;;;;;;;;32.70;55.60;;;;;;4914370;29;19934;-85
2022/06/15 18:41:46;;;;;;;;;;;32.60;55.20;;;;;;4924097;29;19938;-85
2022/06/15 18:49:56;;;;;;;;;;;31.60;56.20;;;;;;4921732;29;20776;-86
2022/06/15 18:52:25;;;;;;;;;;;30.80;57.10;;;;;;4923997;29;19927;-85
2022/06/15 18:54:53;;;;;;;;;;;30.20;57.40;;;;;;4901275;29;19931;-84
2022/06/15 18:57:21;;;;;;;;;;;29.70;58.30;;;;;;4919672;29;19931;-85
2022/06/15 18:59:54;;;;;;;;;;;29.30;58.50;;;;;;4901164;29;19938;-85
2022/06/15 19:02:22;;;;;;;;;;;29.00;58.70;;;;;;4900844;29;19927;-85
2022/06/15 19:04:50;;;;;;;;;;;28.60;60.00;;;;;;4916760;29;19946;-84
2022/06/15 19:07:19;;;;;;;;;;;28.30;60.60;;;;;;4915160;29;19952;-84
2022/06/15 19:09:46;;;;;;;;;;;28.00;60.60;;;;;;4901782;29;19927;-84
2022/06/15 19:12:14;;;;;;;;;;;27.70;62.20;;;;;;4905202;29;19931;-84
2022/06/15 19:14:42;;;;;;;;;;;27.40;61.80;;;;;;4917878;29;19938;-86
2022/06/15 19:17:12;;;;;;;;;;;27.70;62.20;;;;;;4871423;29;20320;-84
2022/06/15 19:19:40;;;;;;;;;;;27.10;61.70;;;;;;4903294;29;19942;-84
2022/06/15 19:22:11;;;;;;;;;;;27.20;62.00;;;;;;4920144;29;19931;-84
2022/06/15 19:24:51;;;;;;;;;;;27.10;61.90;;;;;;4902287;29;19927;-84
2022/06/15 19:27:22;;;;;;;;;;;27.10;61.80;;;;;;4576782;29;10000450;-85
2022/06/15 19:29:53;;;;;;;;;;;27.00;63.30;;;;;;4899568;29;19936;-85